This is the latest recevied weather packets stored in our database for station/object Allmendg1. If no packets are shown the sender has not sent any weather packets the latest 1 day(s).
| Time | Temp. | Humidity | Pressure | Rain* | Wind** | Luminosity | Snow |
|---|---|---|---|---|---|---|---|
| 1778085130 | 11.67° C | 89% | 1006.2 hPa | 3.81 mm | - | - | - |
| 1778079730 | 17.22° C | 62% | 1004 hPa | 0 mm | - | - | - |
| 1778068930 | 16.67° C | 63% | 1004.3 hPa | 0 mm | - | - | - |
| 1778067137 | 16.67° C | 67% | 1004.2 hPa | 0 mm | - | - | - |
| 1778061734 | 15.56° C | 76% | 1005.2 hPa | 0 mm | - | - | - |
| 1778059931 | 15° C | 78% | 1005.2 hPa | 0 mm | - | - | - |
| 1778058131 | 13.89° C | 82% | 1005 hPa | 0 mm | - | - | - |
| 1778054532 | 12.78° C | 87% | 1005.2 hPa | 0 mm | - | - | - |
| 1778052731 | 12.78° C | 88% | 1005.6 hPa | 0 mm | - | - | - |
| 1778050932 | 12.22° C | 89% | 1005.4 hPa | 0 mm | - | - | - |
| 1778040131 | 7.78° C | 91% | 1006 hPa | 0 mm | - | - | - |
| 1778036532 | 8.33° C | 90% | 1006.4 hPa | 0 mm | - | - | - |
| 1778032932 | 10° C | 91% | 1006.5 hPa | 0 mm | - | - | - |
| 1778031131 | 10° C | 91% | 1007 hPa | 0 mm | - | - | - |
| 1778029332 | 9.44° C | 90% | 1007.1 hPa | 0 mm | - | - | - |
| 1778020330 | 11.67° C | 87% | 1007.6 hPa | 0 mm | - | - | - |
| 1778016731 | 12.22° C | 86% | 1007.6 hPa | 0 mm | - | - | - |
| 1778011330 | 14.44° C | 82% | 1007.2 hPa | 0 mm | - | - | - |
| 1778007735 | 15.56° C | 75% | 1006.3 hPa | 0 mm | - | - | - |
| 1778002330 | 16.67° C | 67% | 1005.6 hPa | 0 mm | - | - | - |
* Rain since midnight (hover to see other rain measurements)
** Current wind speed in m/s (hover to see current wind gust speed)